sensor_id;sensor_type;location;lat;lon;timestamp;P1;durP1;ratioP1;P2;durP2;ratioP2
13279;SDS011;6708;49.814;8.652;2023-03-01T00:01:58;5.63;;;5.23;;
13279;SDS011;6708;49.814;8.652;2023-03-01T00:04:30;9.43;;;6.20;;
13279;SDS011;6708;49.814;8.652;2023-03-01T00:07:00;6.20;;;5.60;;
13279;SDS011;6708;49.814;8.652;2023-03-01T00:09:29;13.70;;;5.83;;
13279;SDS011;6708;49.814;8.652;2023-03-01T00:11:57;6.87;;;5.37;;
13279;SDS011;6708;49.814;8.652;2023-03-01T00:14:31;7.40;;;5.77;;
13279;SDS011;6708;49.814;8.652;2023-03-01T00:16:59;6.53;;;5.53;;
13279;SDS011;6708;49.814;8.652;2023-03-01T00:19:28;7.33;;;6.53;;
13279;SDS011;6708;49.814;8.652;2023-03-01T00:21:57;7.10;;;6.37;;
13279;SDS011;6708;49.814;8.652;2023-03-01T00:24:27;6.63;;;5.97;;
13279;SDS011;6708;49.814;8.652;2023-03-01T00:26:55;7.53;;;6.53;;
13279;SDS011;6708;49.814;8.652;2023-03-01T00:29:28;9.80;;;6.20;;
13279;SDS011;6708;49.814;8.652;2023-03-01T00:31:56;6.47;;;5.87;;
13279;SDS011;6708;49.814;8.652;2023-03-01T00:34:25;8.60;;;6.60;;
13279;SDS011;6708;49.814;8.652;2023-03-01T00:36:54;6.87;;;6.27;;
13279;SDS011;6708;49.814;8.652;2023-03-01T00:39:31;6.43;;;5.83;;
13279;SDS011;6708;49.814;8.652;2023-03-01T00:41:59;9.67;;;5.70;;
13279;SDS011;6708;49.814;8.652;2023-03-01T00:44:32;7.23;;;6.53;;
13279;SDS011;6708;49.814;8.652;2023-03-01T00:47:01;7.50;;;6.80;;
13279;SDS011;6708;49.814;8.652;2023-03-01T00:49:30;9.30;;;7.23;;
13279;SDS011;6708;49.814;8.652;2023-03-01T00:51:59;8.40;;;7.07;;
13279;SDS011;6708;49.814;8.652;2023-03-01T00:54:27;11.00;;;7.33;;
13279;SDS011;6708;49.814;8.652;2023-03-01T00:56:59;7.50;;;6.90;;
13279;SDS011;6708;49.814;8.652;2023-03-01T00:59:32;7.77;;;6.67;;
13279;SDS011;6708;49.814;8.652;2023-03-01T01:02:00;7.00;;;6.33;;
13279;SDS011;6708;49.814;8.652;2023-03-01T01:04:31;7.40;;;6.37;;
13279;SDS011;6708;49.814;8.652;2023-03-01T01:07:02;7.03;;;6.30;;
13279;SDS011;6708;49.814;8.652;2023-03-01T01:09:31;7.50;;;6.53;;
13279;SDS011;6708;49.814;8.652;2023-03-01T01:12:02;6.67;;;6.07;;
13279;SDS011;6708;49.814;8.652;2023-03-01T01:14:36;8.73;;;7.00;;
13279;SDS011;6708;49.814;8.652;2023-03-01T01:17:05;8.10;;;6.77;;
13279;SDS011;6708;49.814;8.652;2023-03-01T01:19:33;7.93;;;6.77;;
13279;SDS011;6708;49.814;8.652;2023-03-01T01:22:02;9.23;;;7.17;;
13279;SDS011;6708;49.814;8.652;2023-03-01T01:24:31;7.70;;;6.30;;
13279;SDS011;6708;49.814;8.652;2023-03-01T01:27:00;7.70;;;7.00;;
13279;SDS011;6708;49.814;8.652;2023-03-01T01:29:29;8.87;;;7.63;;
13279;SDS011;6708;49.814;8.652;2023-03-01T01:32:01;8.93;;;7.70;;
13279;SDS011;6708;49.814;8.652;2023-03-01T01:34:29;8.60;;;6.63;;
13279;SDS011;6708;49.814;8.652;2023-03-01T01:36:59;10.10;;;8.57;;
13279;SDS011;6708;49.814;8.652;2023-03-01T01:39:29;9.20;;;7.73;;
13279;SDS011;6708;49.814;8.652;2023-03-01T01:41:57;9.13;;;7.87;;
13279;SDS011;6708;49.814;8.652;2023-03-01T01:44:28;7.83;;;7.03;;
13279;SDS011;6708;49.814;8.652;2023-03-01T01:46:58;8.23;;;7.40;;
13279;SDS011;6708;49.814;8.652;2023-03-01T01:49:33;7.97;;;6.93;;
13279;SDS011;6708;49.814;8.652;2023-03-01T01:52:07;7.67;;;6.93;;
13279;SDS011;6708;49.814;8.652;2023-03-01T01:54:41;7.93;;;6.77;;
13279;SDS011;6708;49.814;8.652;2023-03-01T01:57:12;8.07;;;7.27;;
13279;SDS011;6708;49.814;8.652;2023-03-01T01:59:45;8.23;;;7.17;;
13279;SDS011;6708;49.814;8.652;2023-03-01T02:02:20;7.37;;;6.70;;
13279;SDS011;6708;49.814;8.652;2023-03-01T02:04:50;8.57;;;6.97;;
13279;SDS011;6708;49.814;8.652;2023-03-01T02:07:23;8.33;;;7.20;;
13279;SDS011;6708;49.814;8.652;2023-03-01T02:09:52;8.93;;;6.50;;
13279;SDS011;6708;49.814;8.652;2023-03-01T02:12:23;6.90;;;6.20;;
13279;SDS011;6708;49.814;8.652;2023-03-01T02:14:56;7.20;;;6.57;;
13279;SDS011;6708;49.814;8.652;2023-03-01T02:17:27;7.93;;;7.17;;
13279;SDS011;6708;49.814;8.652;2023-03-01T02:19:59;8.90;;;7.20;;
13279;SDS011;6708;49.814;8.652;2023-03-01T02:22:35;7.67;;;6.70;;
13279;SDS011;6708;49.814;8.652;2023-03-01T02:25:12;8.83;;;8.00;;
13279;SDS011;6708;49.814;8.652;2023-03-01T02:28:10;7.87;;;7.07;;
13279;SDS011;6708;49.814;8.652;2023-03-01T02:30:50;8.27;;;6.47;;
13279;SDS011;6708;49.814;8.652;2023-03-01T02:33:34;6.73;;;6.13;;
13279;SDS011;6708;49.814;8.652;2023-03-01T02:36:07;8.07;;;6.80;;
13279;SDS011;6708;49.814;8.652;2023-03-01T02:38:38;7.93;;;6.87;;
13279;SDS011;6708;49.814;8.652;2023-03-01T02:41:10;11.43;;;7.17;;
13279;SDS011;6708;49.814;8.652;2023-03-01T02:43:42;9.37;;;6.97;;
13279;SDS011;6708;49.814;8.652;2023-03-01T02:46:14;8.03;;;7.07;;
13279;SDS011;6708;49.814;8.652;2023-03-01T02:48:45;7.60;;;6.53;;
13279;SDS011;6708;49.814;8.652;2023-03-01T02:51:31;7.73;;;6.43;;
13279;SDS011;6708;49.814;8.652;2023-03-01T02:54:08;8.53;;;7.63;;
13279;SDS011;6708;49.814;8.652;2023-03-01T02:56:43;8.10;;;7.37;;
13279;SDS011;6708;49.814;8.652;2023-03-01T02:59:19;7.70;;;6.93;;
13279;SDS011;6708;49.814;8.652;2023-03-01T03:01:49;8.40;;;7.60;;
13279;SDS011;6708;49.814;8.652;2023-03-01T03:04:20;8.03;;;7.17;;
13279;SDS011;6708;49.814;8.652;2023-03-01T03:06:50;9.00;;;7.50;;
13279;SDS011;6708;49.814;8.652;2023-03-01T03:09:19;9.30;;;7.63;;
13279;SDS011;6708;49.814;8.652;2023-03-01T03:11:47;8.07;;;7.30;;
13279;SDS011;6708;49.814;8.652;2023-03-01T03:14:19;10.30;;;7.17;;
13279;SDS011;6708;49.814;8.652;2023-03-01T03:16:50;10.53;;;7.53;;
13279;SDS011;6708;49.814;8.652;2023-03-01T03:19:20;9.63;;;7.20;;
13279;SDS011;6708;49.814;8.652;2023-03-01T03:21:57;8.57;;;7.60;;
13279;SDS011;6708;49.814;8.652;2023-03-01T03:24:29;9.07;;;7.33;;
13279;SDS011;6708;49.814;8.652;2023-03-01T03:27:03;7.07;;;6.47;;
13279;SDS011;6708;49.814;8.652;2023-03-01T03:29:34;8.00;;;7.23;;
13279;SDS011;6708;49.814;8.652;2023-03-01T03:32:03;7.77;;;6.97;;
13279;SDS011;6708;49.814;8.652;2023-03-01T03:34:32;13.40;;;6.90;;
13279;SDS011;6708;49.814;8.652;2023-03-01T03:37:01;7.93;;;7.17;;
13279;SDS011;6708;49.814;8.652;2023-03-01T03:39:50;7.07;;;6.43;;
13279;SDS011;6708;49.814;8.652;2023-03-01T03:42:20;9.00;;;7.43;;
13279;SDS011;6708;49.814;8.652;2023-03-01T03:44:52;8.07;;;7.27;;
13279;SDS011;6708;49.814;8.652;2023-03-01T03:47:20;9.53;;;6.93;;
13279;SDS011;6708;49.814;8.652;2023-03-01T03:49:51;7.53;;;6.87;;
13279;SDS011;6708;49.814;8.652;2023-03-01T03:52:24;7.80;;;7.00;;
13279;SDS011;6708;49.814;8.652;2023-03-01T03:54:53;7.90;;;7.13;;
13279;SDS011;6708;49.814;8.652;2023-03-01T03:57:22;8.50;;;7.43;;
13279;SDS011;6708;49.814;8.652;2023-03-01T03:59:53;8.07;;;7.27;;
13279;SDS011;6708;49.814;8.652;2023-03-01T04:02:22;10.43;;;7.60;;
13279;SDS011;6708;49.814;8.652;2023-03-01T04:04:51;9.70;;;7.67;;
13279;SDS011;6708;49.814;8.652;2023-03-01T04:07:22;12.00;;;7.10;;
13279;SDS011;6708;49.814;8.652;2023-03-01T04:09:50;11.47;;;8.33;;
13279;SDS011;6708;49.814;8.652;2023-03-01T04:12:19;9.70;;;8.17;;
13279;SDS011;6708;49.814;8.652;2023-03-01T04:14:48;8.27;;;7.40;;
13279;SDS011;6708;49.814;8.652;2023-03-01T04:17:22;7.80;;;7.07;;
13279;SDS011;6708;49.814;8.652;2023-03-01T04:19:51;8.13;;;7.07;;
13279;SDS011;6708;49.814;8.652;2023-03-01T04:22:19;7.40;;;6.70;;
13279;SDS011;6708;49.814;8.652;2023-03-01T04:24:54;9.50;;;6.63;;
13279;SDS011;6708;49.814;8.652;2023-03-01T04:27:31;10.33;;;7.53;;
13279;SDS011;6708;49.814;8.652;2023-03-01T04:30:00;8.57;;;7.50;;
13279;SDS011;6708;49.814;8.652;2023-03-01T04:32:31;8.23;;;6.57;;
13279;SDS011;6708;49.814;8.652;2023-03-01T04:35:00;7.50;;;6.80;;
13279;SDS011;6708;49.814;8.652;2023-03-01T04:37:28;9.97;;;8.00;;
13279;SDS011;6708;49.814;8.652;2023-03-01T04:39:56;10.23;;;7.97;;
13279;SDS011;6708;49.814;8.652;2023-03-01T04:42:25;11.30;;;8.47;;
13279;SDS011;6708;49.814;8.652;2023-03-01T04:44:54;10.33;;;8.50;;
13279;SDS011;6708;49.814;8.652;2023-03-01T04:47:22;10.30;;;8.10;;
13279;SDS011;6708;49.814;8.652;2023-03-01T04:49:53;9.37;;;8.30;;
13279;SDS011;6708;49.814;8.652;2023-03-01T04:52:22;9.40;;;7.80;;
13279;SDS011;6708;49.814;8.652;2023-03-01T04:54:50;9.70;;;8.03;;
13279;SDS011;6708;49.814;8.652;2023-03-01T04:57:18;9.13;;;8.23;;
13279;SDS011;6708;49.814;8.652;2023-03-01T04:59:47;11.30;;;8.37;;
13279;SDS011;6708;49.814;8.652;2023-03-01T05:02:15;8.77;;;7.33;;
13279;SDS011;6708;49.814;8.652;2023-03-01T05:04:44;11.43;;;8.27;;
13279;SDS011;6708;49.814;8.652;2023-03-01T05:07:15;9.80;;;7.60;;
13279;SDS011;6708;49.814;8.652;2023-03-01T05:09:45;8.13;;;7.43;;
13279;SDS011;6708;49.814;8.652;2023-03-01T05:12:14;10.77;;;7.97;;
13279;SDS011;6708;49.814;8.652;2023-03-01T05:14:43;8.50;;;7.60;;
13279;SDS011;6708;49.814;8.652;2023-03-01T05:17:11;9.13;;;8.23;;
13279;SDS011;6708;49.814;8.652;2023-03-01T05:19:40;9.17;;;7.73;;
13279;SDS011;6708;49.814;8.652;2023-03-01T05:22:09;8.13;;;7.30;;
13279;SDS011;6708;49.814;8.652;2023-03-01T05:24:40;9.30;;;8.20;;
13279;SDS011;6708;49.814;8.652;2023-03-01T05:27:09;8.63;;;7.73;;
13279;SDS011;6708;49.814;8.652;2023-03-01T05:29:38;10.57;;;7.87;;
13279;SDS011;6708;49.814;8.652;2023-03-01T05:32:06;9.40;;;8.40;;
13279;SDS011;6708;49.814;8.652;2023-03-01T05:34:39;10.43;;;8.13;;
13279;SDS011;6708;49.814;8.652;2023-03-01T05:37:09;11.20;;;8.70;;
13279;SDS011;6708;49.814;8.652;2023-03-01T05:39:41;9.73;;;8.73;;
13279;SDS011;6708;49.814;8.652;2023-03-01T05:42:10;9.50;;;8.10;;
13279;SDS011;6708;49.814;8.652;2023-03-01T05:44:41;13.10;;;9.60;;
13279;SDS011;6708;49.814;8.652;2023-03-01T05:47:11;10.93;;;8.57;;
13279;SDS011;6708;49.814;8.652;2023-03-01T05:49:39;9.43;;;8.47;;
13279;SDS011;6708;49.814;8.652;2023-03-01T05:52:11;8.57;;;7.87;;
13279;SDS011;6708;49.814;8.652;2023-03-01T05:54:42;9.17;;;7.97;;
13279;SDS011;6708;49.814;8.652;2023-03-01T05:57:11;10.80;;;8.40;;
13279;SDS011;6708;49.814;8.652;2023-03-01T05:59:45;15.03;;;8.60;;
13279;SDS011;6708;49.814;8.652;2023-03-01T06:02:13;10.03;;;8.37;;
13279;SDS011;6708;49.814;8.652;2023-03-01T06:04:44;19.00;;;9.03;;
13279;SDS011;6708;49.814;8.652;2023-03-01T06:07:13;9.60;;;8.10;;
13279;SDS011;6708;49.814;8.652;2023-03-01T06:09:44;8.93;;;8.03;;
13279;SDS011;6708;49.814;8.652;2023-03-01T06:12:12;10.23;;;8.23;;
13279;SDS011;6708;49.814;8.652;2023-03-01T06:14:41;9.93;;;8.23;;
13279;SDS011;6708;49.814;8.652;2023-03-01T06:17:12;10.67;;;8.53;;
13279;SDS011;6708;49.814;8.652;2023-03-01T06:19:40;8.60;;;7.80;;
13279;SDS011;6708;49.814;8.652;2023-03-01T06:22:12;11.17;;;8.93;;
13279;SDS011;6708;49.814;8.652;2023-03-01T06:24:40;11.23;;;8.53;;
13279;SDS011;6708;49.814;8.652;2023-03-01T06:27:11;9.37;;;8.30;;
13279;SDS011;6708;49.814;8.652;2023-03-01T06:29:40;9.13;;;8.23;;
13279;SDS011;6708;49.814;8.652;2023-03-01T06:32:10;9.07;;;8.27;;
13279;SDS011;6708;49.814;8.652;2023-03-01T06:34:39;8.53;;;7.83;;
13279;SDS011;6708;49.814;8.652;2023-03-01T06:37:09;10.87;;;9.33;;
13279;SDS011;6708;49.814;8.652;2023-03-01T06:39:40;9.93;;;8.90;;
13279;SDS011;6708;49.814;8.652;2023-03-01T06:42:12;9.97;;;8.83;;
13279;SDS011;6708;49.814;8.652;2023-03-01T06:44:41;10.33;;;8.80;;
13279;SDS011;6708;49.814;8.652;2023-03-01T06:47:13;8.97;;;8.07;;
13279;SDS011;6708;49.814;8.652;2023-03-01T06:49:47;11.97;;;8.43;;
13279;SDS011;6708;49.814;8.652;2023-03-01T06:52:16;9.57;;;8.60;;
13279;SDS011;6708;49.814;8.652;2023-03-01T06:54:47;11.73;;;8.43;;
13279;SDS011;6708;49.814;8.652;2023-03-01T06:57:18;10.87;;;8.20;;
13279;SDS011;6708;49.814;8.652;2023-03-01T06:59:47;12.73;;;8.27;;
13279;SDS011;6708;49.814;8.652;2023-03-01T07:02:15;12.17;;;8.97;;
13279;SDS011;6708;49.814;8.652;2023-03-01T07:04:44;9.30;;;8.40;;
13279;SDS011;6708;49.814;8.652;2023-03-01T07:07:13;10.47;;;8.73;;
13279;SDS011;6708;49.814;8.652;2023-03-01T07:09:46;9.80;;;8.30;;
13279;SDS011;6708;49.814;8.652;2023-03-01T07:12:18;10.27;;;7.73;;
13279;SDS011;6708;49.814;8.652;2023-03-01T07:14:47;9.97;;;8.97;;
13279;SDS011;6708;49.814;8.652;2023-03-01T07:17:18;12.40;;;8.57;;
13279;SDS011;6708;49.814;8.652;2023-03-01T07:19:47;10.67;;;7.87;;
13279;SDS011;6708;49.814;8.652;2023-03-01T07:22:18;9.97;;;8.97;;
13279;SDS011;6708;49.814;8.652;2023-03-01T07:24:46;9.47;;;8.53;;
13279;SDS011;6708;49.814;8.652;2023-03-01T07:27:15;12.50;;;8.17;;
13279;SDS011;6708;49.814;8.652;2023-03-01T07:29:47;11.30;;;9.47;;
13279;SDS011;6708;49.814;8.652;2023-03-01T07:32:15;11.13;;;8.67;;
13279;SDS011;6708;49.814;8.652;2023-03-01T07:34:44;9.93;;;8.33;;
13279;SDS011;6708;49.814;8.652;2023-03-01T07:37:14;10.90;;;8.90;;
13279;SDS011;6708;49.814;8.652;2023-03-01T07:39:43;12.03;;;9.27;;
13279;SDS011;6708;49.814;8.652;2023-03-01T07:42:13;10.23;;;8.67;;
13279;SDS011;6708;49.814;8.652;2023-03-01T07:44:43;9.40;;;8.40;;
13279;SDS011;6708;49.814;8.652;2023-03-01T07:47:15;10.13;;;9.17;;
13279;SDS011;6708;49.814;8.652;2023-03-01T07:49:43;14.23;;;8.90;;
13279;SDS011;6708;49.814;8.652;2023-03-01T07:52:12;12.50;;;8.80;;
13279;SDS011;6708;49.814;8.652;2023-03-01T07:54:42;10.50;;;9.40;;
13279;SDS011;6708;49.814;8.652;2023-03-01T07:57:12;15.20;;;9.70;;
13279;SDS011;6708;49.814;8.652;2023-03-01T07:59:41;10.60;;;9.03;;
13279;SDS011;6708;49.814;8.652;2023-03-01T08:02:13;12.37;;;8.80;;
13279;SDS011;6708;49.814;8.652;2023-03-01T08:04:44;11.47;;;9.23;;
13279;SDS011;6708;49.814;8.652;2023-03-01T08:07:13;12.23;;;9.33;;
13279;SDS011;6708;49.814;8.652;2023-03-01T08:09:42;11.07;;;8.97;;
13279;SDS011;6708;49.814;8.652;2023-03-01T08:12:13;12.70;;;9.90;;
13279;SDS011;6708;49.814;8.652;2023-03-01T08:14:42;11.20;;;9.10;;
13279;SDS011;6708;49.814;8.652;2023-03-01T08:17:12;11.70;;;9.50;;
13279;SDS011;6708;49.814;8.652;2023-03-01T08:19:46;11.27;;;9.63;;
13279;SDS011;6708;49.814;8.652;2023-03-01T08:22:15;9.77;;;8.77;;
13279;SDS011;6708;49.814;8.652;2023-03-01T08:24:43;11.00;;;9.80;;
13279;SDS011;6708;49.814;8.652;2023-03-01T08:27:12;11.43;;;9.47;;
13279;SDS011;6708;49.814;8.652;2023-03-01T08:29:40;10.83;;;9.27;;
13279;SDS011;6708;49.814;8.652;2023-03-01T08:32:09;10.73;;;9.63;;
13279;SDS011;6708;49.814;8.652;2023-03-01T08:34:43;10.07;;;9.03;;
13279;SDS011;6708;49.814;8.652;2023-03-01T08:37:17;12.93;;;9.07;;
13279;SDS011;6708;49.814;8.652;2023-03-01T08:39:46;15.47;;;9.10;;
13279;SDS011;6708;49.814;8.652;2023-03-01T08:42:14;11.57;;;9.13;;
13279;SDS011;6708;49.814;8.652;2023-03-01T08:44:43;12.10;;;9.00;;
13279;SDS011;6708;49.814;8.652;2023-03-01T08:47:14;10.33;;;9.33;;
13279;SDS011;6708;49.814;8.652;2023-03-01T08:49:45;11.57;;;9.87;;
13279;SDS011;6708;49.814;8.652;2023-03-01T08:52:13;10.90;;;9.87;;
13279;SDS011;6708;49.814;8.652;2023-03-01T08:54:43;11.83;;;8.90;;
13279;SDS011;6708;49.814;8.652;2023-03-01T08:57:12;11.23;;;9.33;;
13279;SDS011;6708;49.814;8.652;2023-03-01T08:59:44;10.17;;;9.03;;
13279;SDS011;6708;49.814;8.652;2023-03-01T09:02:18;10.50;;;9.03;;
13279;SDS011;6708;49.814;8.652;2023-03-01T09:04:54;13.07;;;9.03;;
13279;SDS011;6708;49.814;8.652;2023-03-01T09:07:25;10.93;;;9.53;;
13279;SDS011;6708;49.814;8.652;2023-03-01T09:10:04;13.77;;;9.53;;
13279;SDS011;6708;49.814;8.652;2023-03-01T09:12:34;13.23;;;9.87;;
13279;SDS011;6708;49.814;8.652;2023-03-01T09:15:03;10.53;;;8.90;;
13279;SDS011;6708;49.814;8.652;2023-03-01T09:17:32;12.93;;;10.03;;
13279;SDS011;6708;49.814;8.652;2023-03-01T09:20:04;10.13;;;9.03;;
13279;SDS011;6708;49.814;8.652;2023-03-01T09:22:33;10.37;;;9.27;;
13279;SDS011;6708;49.814;8.652;2023-03-01T09:25:03;16.83;;;9.63;;
13279;SDS011;6708;49.814;8.652;2023-03-01T09:27:32;11.63;;;9.10;;
13279;SDS011;6708;49.814;8.652;2023-03-01T09:30:01;12.73;;;9.70;;
13279;SDS011;6708;49.814;8.652;2023-03-01T09:32:30;11.30;;;9.33;;
13279;SDS011;6708;49.814;8.652;2023-03-01T09:34:58;11.47;;;9.63;;
13279;SDS011;6708;49.814;8.652;2023-03-01T09:37:34;14.67;;;10.70;;
13279;SDS011;6708;49.814;8.652;2023-03-01T09:40:04;18.07;;;11.20;;
13279;SDS011;6708;49.814;8.652;2023-03-01T09:42:34;12.20;;;10.50;;
13279;SDS011;6708;49.814;8.652;2023-03-01T09:45:04;12.93;;;10.13;;
13279;SDS011;6708;49.814;8.652;2023-03-01T09:47:36;13.10;;;10.33;;
13279;SDS011;6708;49.814;8.652;2023-03-01T09:50:09;12.97;;;10.90;;
13279;SDS011;6708;49.814;8.652;2023-03-01T09:52:45;14.13;;;10.90;;
13279;SDS011;6708;49.814;8.652;2023-03-01T09:55:17;12.57;;;10.77;;
13279;SDS011;6708;49.814;8.652;2023-03-01T09:57:50;18.30;;;10.67;;
13279;SDS011;6708;49.814;8.652;2023-03-01T10:00:30;13.23;;;10.97;;
13279;SDS011;6708;49.814;8.652;2023-03-01T10:03:08;11.27;;;9.97;;
13279;SDS011;6708;49.814;8.652;2023-03-01T10:05:43;13.00;;;10.33;;
13279;SDS011;6708;49.814;8.652;2023-03-01T10:11:16;14.37;;;11.10;;
13279;SDS011;6708;49.814;8.652;2023-03-01T10:13:49;12.40;;;10.37;;
13279;SDS011;6708;49.814;8.652;2023-03-01T10:16:22;16.67;;;10.80;;
13279;SDS011;6708;49.814;8.652;2023-03-01T10:18:56;14.70;;;11.27;;
13279;SDS011;6708;49.814;8.652;2023-03-01T10:21:27;15.80;;;10.80;;
13279;SDS011;6708;49.814;8.652;2023-03-01T10:24:05;13.37;;;10.77;;
13279;SDS011;6708;49.814;8.652;2023-03-01T10:26:41;12.20;;;10.90;;
13279;SDS011;6708;49.814;8.652;2023-03-01T10:29:22;11.53;;;10.43;;
13279;SDS011;6708;49.814;8.652;2023-03-01T10:31:53;14.47;;;10.73;;
13279;SDS011;6708;49.814;8.652;2023-03-01T10:34:26;18.87;;;11.13;;
13279;SDS011;6708;49.814;8.652;2023-03-01T10:36:57;16.63;;;11.33;;
13279;SDS011;6708;49.814;8.652;2023-03-01T10:39:33;15.17;;;12.10;;
13279;SDS011;6708;49.814;8.652;2023-03-01T10:42:04;12.43;;;11.13;;
13279;SDS011;6708;49.814;8.652;2023-03-01T10:44:46;14.87;;;11.47;;
13279;SDS011;6708;49.814;8.652;2023-03-01T10:47:36;13.07;;;11.20;;
13279;SDS011;6708;49.814;8.652;2023-03-01T10:50:17;14.80;;;11.17;;
13279;SDS011;6708;49.814;8.652;2023-03-01T10:53:02;14.80;;;11.20;;
13279;SDS011;6708;49.814;8.652;2023-03-01T10:56:00;15.60;;;11.83;;
13279;SDS011;6708;49.814;8.652;2023-03-01T10:58:30;13.07;;;11.67;;
13279;SDS011;6708;49.814;8.652;2023-03-01T11:01:03;14.10;;;11.07;;
13279;SDS011;6708;49.814;8.652;2023-03-01T11:03:35;21.33;;;11.20;;
13279;SDS011;6708;49.814;8.652;2023-03-01T11:06:20;13.83;;;11.73;;
13279;SDS011;6708;49.814;8.652;2023-03-01T11:09:12;15.03;;;10.83;;
13279;SDS011;6708;49.814;8.652;2023-03-01T11:11:46;13.17;;;10.63;;
13279;SDS011;6708;49.814;8.652;2023-03-01T11:14:46;13.93;;;10.67;;
13279;SDS011;6708;49.814;8.652;2023-03-01T11:17:17;12.50;;;10.20;;
13279;SDS011;6708;49.814;8.652;2023-03-01T11:19:49;12.07;;;9.90;;
13279;SDS011;6708;49.814;8.652;2023-03-01T11:22:32;11.17;;;10.00;;
13279;SDS011;6708;49.814;8.652;2023-03-01T11:25:07;12.43;;;10.10;;
13279;SDS011;6708;49.814;8.652;2023-03-01T11:27:44;46.47;;;10.17;;
13279;SDS011;6708;49.814;8.652;2023-03-01T11:30:17;10.60;;;9.50;;
13279;SDS011;6708;49.814;8.652;2023-03-01T11:32:50;9.83;;;8.83;;
13279;SDS011;6708;49.814;8.652;2023-03-01T11:35:37;10.83;;;8.87;;
13279;SDS011;6708;49.814;8.652;2023-03-01T11:38:18;14.73;;;10.07;;
13279;SDS011;6708;49.814;8.652;2023-03-01T11:40:54;17.37;;;9.70;;
13279;SDS011;6708;49.814;8.652;2023-03-01T11:43:35;11.27;;;9.20;;
13279;SDS011;6708;49.814;8.652;2023-03-01T11:49:00;10.43;;;9.33;;
13279;SDS011;6708;49.814;8.652;2023-03-01T11:51:40;12.57;;;9.13;;
13279;SDS011;6708;49.814;8.652;2023-03-01T11:54:20;12.40;;;9.17;;
13279;SDS011;6708;49.814;8.652;2023-03-01T11:57:07;12.73;;;9.00;;
13279;SDS011;6708;49.814;8.652;2023-03-01T12:08:45;11.57;;;8.07;;
13279;SDS011;6708;49.814;8.652;2023-03-01T12:11:23;12.53;;;9.17;;
13279;SDS011;6708;49.814;8.652;2023-03-01T12:14:03;11.10;;;8.83;;
13279;SDS011;6708;49.814;8.652;2023-03-01T12:17:01;10.10;;;9.10;;
13279;SDS011;6708;49.814;8.652;2023-03-01T12:19:41;12.07;;;9.20;;
13279;SDS011;6708;49.814;8.652;2023-03-01T12:22:25;9.77;;;8.33;;
13279;SDS011;6708;49.814;8.652;2023-03-01T12:28:09;8.30;;;7.47;;
13279;SDS011;6708;49.814;8.652;2023-03-01T12:34:16;8.87;;;7.70;;
13279;SDS011;6708;49.814;8.652;2023-03-01T12:39:49;16.60;;;8.00;;
13279;SDS011;6708;49.814;8.652;2023-03-01T12:42:27;10.07;;;7.10;;
13279;SDS011;6708;49.814;8.652;2023-03-01T12:45:25;8.33;;;6.90;;
13279;SDS011;6708;49.814;8.652;2023-03-01T12:48:08;8.03;;;6.80;;
13279;SDS011;6708;49.814;8.652;2023-03-01T12:50:51;7.43;;;6.70;;
13279;SDS011;6708;49.814;8.652;2023-03-01T12:53:26;7.33;;;6.53;;
13279;SDS011;6708;49.814;8.652;2023-03-01T12:55:56;7.17;;;6.47;;
13279;SDS011;6708;49.814;8.652;2023-03-01T12:58:29;11.00;;;6.80;;
13279;SDS011;6708;49.814;8.652;2023-03-01T13:01:02;6.93;;;6.23;;
13279;SDS011;6708;49.814;8.652;2023-03-01T13:06:40;8.53;;;6.37;;
13279;SDS011;6708;49.814;8.652;2023-03-01T13:09:18;7.37;;;6.20;;
13279;SDS011;6708;49.814;8.652;2023-03-01T13:11:50;10.20;;;6.60;;
13279;SDS011;6708;49.814;8.652;2023-03-01T13:17:07;13.17;;;6.73;;
13279;SDS011;6708;49.814;8.652;2023-03-01T13:20:02;6.83;;;6.23;;
13279;SDS011;6708;49.814;8.652;2023-03-01T13:22:41;13.90;;;6.30;;
13279;SDS011;6708;49.814;8.652;2023-03-01T13:25:13;6.53;;;6.00;;
13279;SDS011;6708;49.814;8.652;2023-03-01T13:27:47;8.07;;;6.07;;
13279;SDS011;6708;49.814;8.652;2023-03-01T13:36:08;7.67;;;6.20;;
13279;SDS011;6708;49.814;8.652;2023-03-01T13:38:43;7.63;;;5.93;;
13279;SDS011;6708;49.814;8.652;2023-03-01T13:41:16;7.07;;;5.83;;
13279;SDS011;6708;49.814;8.652;2023-03-01T13:44:15;10.37;;;6.17;;
13279;SDS011;6708;49.814;8.652;2023-03-01T13:46:49;6.17;;;5.53;;
13279;SDS011;6708;49.814;8.652;2023-03-01T13:49:21;6.93;;;6.33;;
13279;SDS011;6708;49.814;8.652;2023-03-01T13:51:51;7.27;;;6.40;;
13279;SDS011;6708;49.814;8.652;2023-03-01T13:54:25;8.73;;;6.23;;
13279;SDS011;6708;49.814;8.652;2023-03-01T13:56:55;7.87;;;6.50;;
13279;SDS011;6708;49.814;8.652;2023-03-01T13:59:26;6.67;;;6.07;;
13279;SDS011;6708;49.814;8.652;2023-03-01T14:01:56;6.90;;;6.20;;
13279;SDS011;6708;49.814;8.652;2023-03-01T14:04:30;6.60;;;5.97;;
13279;SDS011;6708;49.814;8.652;2023-03-01T14:07:10;7.87;;;6.07;;
13279;SDS011;6708;49.814;8.652;2023-03-01T14:09:40;6.33;;;5.70;;
13279;SDS011;6708;49.814;8.652;2023-03-01T14:12:14;7.23;;;5.40;;
13279;SDS011;6708;49.814;8.652;2023-03-01T14:14:56;9.37;;;6.20;;
13279;SDS011;6708;49.814;8.652;2023-03-01T14:20:38;7.27;;;5.87;;
13279;SDS011;6708;49.814;8.652;2023-03-01T14:23:17;6.40;;;5.80;;
13279;SDS011;6708;49.814;8.652;2023-03-01T14:25:47;5.73;;;5.23;;
13279;SDS011;6708;49.814;8.652;2023-03-01T14:28:18;5.73;;;5.23;;
13279;SDS011;6708;49.814;8.652;2023-03-01T14:30:51;5.27;;;4.67;;
13279;SDS011;6708;49.814;8.652;2023-03-01T14:33:25;8.90;;;5.07;;
13279;SDS011;6708;49.814;8.652;2023-03-01T14:35:56;5.83;;;5.00;;
13279;SDS011;6708;49.814;8.652;2023-03-01T14:38:30;5.70;;;4.83;;
13279;SDS011;6708;49.814;8.652;2023-03-01T14:41:05;5.43;;;4.83;;
13279;SDS011;6708;49.814;8.652;2023-03-01T14:43:37;5.83;;;4.63;;
13279;SDS011;6708;49.814;8.652;2023-03-01T14:46:16;5.60;;;4.97;;
13279;SDS011;6708;49.814;8.652;2023-03-01T14:48:47;5.73;;;5.10;;
13279;SDS011;6708;49.814;8.652;2023-03-01T14:51:20;9.33;;;5.23;;
13279;SDS011;6708;49.814;8.652;2023-03-01T14:53:49;6.63;;;5.77;;
13279;SDS011;6708;49.814;8.652;2023-03-01T14:56:21;17.83;;;6.00;;
13279;SDS011;6708;49.814;8.652;2023-03-01T14:58:51;8.00;;;5.67;;
13279;SDS011;6708;49.814;8.652;2023-03-01T15:01:22;5.50;;;5.07;;
13279;SDS011;6708;49.814;8.652;2023-03-01T15:03:55;6.37;;;5.63;;
13279;SDS011;6708;49.814;8.652;2023-03-01T15:06:28;8.10;;;5.47;;
13279;SDS011;6708;49.814;8.652;2023-03-01T15:08:59;7.30;;;5.70;;
13279;SDS011;6708;49.814;8.652;2023-03-01T15:11:31;7.23;;;6.10;;
13279;SDS011;6708;49.814;8.652;2023-03-01T15:14:05;6.00;;;5.43;;
13279;SDS011;6708;49.814;8.652;2023-03-01T15:17:04;7.40;;;6.00;;
13279;SDS011;6708;49.814;8.652;2023-03-01T15:19:32;7.83;;;6.17;;
13279;SDS011;6708;49.814;8.652;2023-03-01T15:22:01;6.93;;;5.83;;
13279;SDS011;6708;49.814;8.652;2023-03-01T15:24:39;6.80;;;6.10;;
13279;SDS011;6708;49.814;8.652;2023-03-01T15:27:13;7.73;;;6.27;;
13279;SDS011;6708;49.814;8.652;2023-03-01T15:29:50;8.80;;;6.13;;
13279;SDS011;6708;49.814;8.652;2023-03-01T15:32:23;12.63;;;7.00;;
13279;SDS011;6708;49.814;8.652;2023-03-01T15:34:54;6.77;;;5.87;;
13279;SDS011;6708;49.814;8.652;2023-03-01T15:37:38;10.60;;;6.30;;
13279;SDS011;6708;49.814;8.652;2023-03-01T15:40:18;6.80;;;5.93;;
13279;SDS011;6708;49.814;8.652;2023-03-01T15:42:50;13.00;;;6.80;;
13279;SDS011;6708;49.814;8.652;2023-03-01T15:45:24;7.23;;;6.63;;
13279;SDS011;6708;49.814;8.652;2023-03-01T15:47:54;8.40;;;6.30;;
13279;SDS011;6708;49.814;8.652;2023-03-01T15:50:27;9.63;;;6.57;;
13279;SDS011;6708;49.814;8.652;2023-03-01T15:52:58;6.90;;;6.20;;
13279;SDS011;6708;49.814;8.652;2023-03-01T15:55:28;7.47;;;5.93;;
13279;SDS011;6708;49.814;8.652;2023-03-01T15:57:59;6.80;;;6.10;;
13279;SDS011;6708;49.814;8.652;2023-03-01T16:00:31;10.27;;;6.53;;
13279;SDS011;6708;49.814;8.652;2023-03-01T16:03:03;6.87;;;5.87;;
13279;SDS011;6708;49.814;8.652;2023-03-01T16:05:34;6.87;;;6.27;;